createdAt,value
2023-01-17T00:22:36.550Z,42.47
2023-01-17T00:52:40.147Z,29.73
2023-01-17T01:22:44.698Z,16.90
2023-01-17T01:52:48.280Z,29.30
2023-01-17T02:22:51.201Z,26.10
2023-01-17T02:52:54.410Z,27.50
2023-01-17T03:22:57.386Z,36.93
2023-01-17T03:53:00.776Z,38.23
2023-01-17T04:23:03.767Z,28.57
2023-01-17T04:53:06.693Z,29.77
2023-01-17T05:23:10.391Z,26.67
2023-01-17T05:53:13.562Z,13.33
2023-01-17T06:23:17.252Z,11.43
2023-01-17T06:53:20.217Z,11.80
2023-01-17T07:23:23.561Z,10.27
2023-01-17T07:53:26.405Z,11.87
2023-01-17T08:23:30.168Z,11.15
2023-01-17T08:53:33.038Z,9.37
2023-01-17T09:23:36.799Z,9.83
2023-01-17T09:53:39.627Z,7.77
2023-01-17T10:23:44.363Z,4.70
2023-01-17T10:53:47.291Z,3.00
2023-01-17T11:23:50.275Z,6.17
2023-01-17T11:53:53.773Z,6.30
2023-01-17T12:23:57.327Z,5.30
2023-01-17T12:54:00.156Z,3.50
2023-01-17T13:24:04.164Z,6.00
2023-01-17T13:54:07.026Z,4.10
2023-01-17T14:24:10.598Z,7.40
2023-01-17T14:54:13.477Z,7.10
2023-01-17T15:24:17.157Z,12.07
2023-01-17T15:54:20.176Z,18.95
2023-01-17T16:24:27.594Z,16.87
2023-01-17T16:54:30.539Z,17.40
2023-01-17T17:24:35.088Z,14.40
2023-01-17T17:54:38.143Z,25.73
2023-01-17T18:24:42.236Z,27.37
2023-01-17T18:54:45.157Z,50.63
2023-01-17T19:24:49.625Z,36.53
2023-01-17T19:54:52.520Z,55.73
2023-01-17T20:24:56.638Z,58.50
2023-01-17T20:54:59.551Z,93.97
2023-01-17T21:25:04.535Z,77.30
2023-01-17T21:55:07.851Z,101.83
2023-01-17T22:25:11.828Z,104.13
2023-01-17T22:55:14.983Z,82.17
2023-01-17T23:25:17.927Z,91.30
2023-01-17T23:55:21.575Z,104.73
